LTBJ/ADB METAR and TAF weather

Enter ICAO airport designator
Station Type Date Time Source
LTBJ METAR 2019/02/16 02:50 UTC NOAA

LTBJ 160250Z 34017KT CAVOK 06/00 Q1017 NOSIG


Station Type Date Time Source
LTBJ Decoded METAR 2019/02/16 02:50 UTC NOAA

Izmir / Adnan Menderes, Turkey (LTBJ) 38-16N 027-09E 120M
Feb 15, 2019 - 09:50 PM EST / 2019.02.16 0250 UTC
Wind: from the NNW (340 degrees) at 20 MPH (17 KT):0
Visibility: greater than 7 mile(s):0
Temperature: 42 F (6 C)
Dew Point: 32 F (0 C)
Relative Humidity: 65%
Pressure (altimeter): 30.03 in. Hg (1017 hPa)
ob: LTBJ 160250Z 34017KT CAVOK 06/00 Q1017 NOSIG
cycle: 3

Station Type Date Time Source
LTBJ TAF 2019/02/15 18:03 UTC NOAA

TAF LTBJ 151640Z 1518/1618 36020G35KT 9999 SCT030
BECMG 1520/1522 CAVOK


Example: see airport list